Time;durP1;ratioP1;P1;durP2;ratioP2;P2;SDS_P1;SDS_P2;PMS_P1;PMS_P2;Temp;Humidity;BMP_temperature;BMP_pressure;BME280_temperature;BME280_humidity;BME280_pressure;Samples;Min_cycle;Max_cycle;Signal;HPM_P1;HPM_P2
2022/06/13 00:04:08;;;;;;;3.25;1.58;;;;;;;18.02;73.86;101638.66;20794908;28;20038;-78
2022/06/13 00:14:10;;;;;;;1.88;1.30;;;;;;;17.93;73.85;101621.34;20810711;28;20141;-78
2022/06/13 00:24:11;;;;;;;4.05;1.70;;;;;;;17.99;73.83;101626.25;20810179;28;20048;-79
2022/06/13 00:34:13;;;;;;;2.33;1.60;;;;;;;18.17;74.01;101650.09;20811332;28;20406;-77
2022/06/13 00:44:19;;;;;;;1.67;1.25;;;;;;;18.17;73.85;101647.38;20804964;28;20052;-78
2022/06/13 00:54:21;;;;;;;2.20;1.50;;;;;;;17.43;73.83;101520.09;20889349;28;20048;-78
2022/06/13 01:04:24;;;;;;;4.03;1.60;;;;;;;18.15;73.70;101625.09;20891011;28;20041;-78
2022/06/13 01:14:50;;;;;;;2.63;1.60;;;;;;;18.15;73.82;101625.94;20888508;28;20056;-78
2022/06/13 01:25:25;;;;;;;2.35;1.50;;;;;;;18.14;73.97;101613.44;20807338;28;20042;-78
2022/06/13 01:36:07;;;;;;;2.70;1.50;;;;;;;18.14;73.97;101620.69;20803218;28;20410;-78
2022/06/13 01:46:18;;;;;;;2.35;1.40;;;;;;;18.14;73.78;101601.81;20803503;28;20042;-78
2022/06/13 01:56:25;;;;;;;2.40;1.55;;;;;;;18.13;73.98;101619.81;20737232;28;20498;-78
2022/06/13 02:06:33;;;;;;;2.63;1.65;;;;;;;18.11;73.69;101624.47;20721925;28;20137;-78
2022/06/13 02:16:51;;;;;;;3.00;1.75;;;;;;;17.94;73.90;101596.09;20720323;28;20373;-78
2022/06/13 02:26:55;;;;;;;1.70;1.48;;;;;;;18.05;73.77;101592.63;20723975;28;20048;-78
2022/06/13 02:37:05;;;;;;;2.42;1.40;;;;;;;18.10;73.74;101604.72;20769261;28;20041;-77
2022/06/13 02:47:16;;;;;;;2.30;1.60;;;;;;;18.10;73.85;101636.22;20799739;28;20114;-77
2022/06/13 02:57:52;;;;;;;2.20;1.50;;;;;;;18.10;73.65;101620.06;20799349;28;20045;-78
2022/06/13 03:07:59;;;;;;;3.43;1.77;;;;;;;17.98;73.76;101594.88;20881384;28;20114;-78
2022/06/13 03:18:08;;;;;;;2.25;1.67;;;;;;;17.95;73.97;101590.63;20894729;28;20048;-78
2022/06/13 03:28:23;;;;;;;3.03;1.75;;;;;;;17.88;73.86;101566.97;20877239;28;20168;-77
2022/06/13 03:38:30;;;;;;;2.97;1.65;;;;;;;18.07;73.87;101607.66;20863795;28;20049;-78
2022/06/13 03:48:48;;;;;;;2.20;1.60;;;;;;;18.01;73.97;101607.31;20796846;28;20080;-77
2022/06/13 03:59:08;;;;;;;2.35;1.52;;;;;;;17.93;74.20;101597.97;20815972;28;20083;-78
2022/06/13 04:09:18;;;;;;;2.92;1.90;;;;;;;18.07;74.09;101615.75;20829408;28;20119;-78
2022/06/13 04:19:31;;;;;;;2.28;1.75;;;;;;;17.87;74.58;101590.31;20793290;28;20045;-78
2022/06/13 04:29:45;;;;;;;2.88;1.50;;;;;;;18.01;74.19;101628.84;20874571;28;20049;-77
2022/06/13 04:39:49;;;;;;;3.83;1.90;;;;;;;18.07;74.41;101634.59;20830970;28;20095;-77
2022/06/13 04:49:54;;;;;;;2.83;1.70;;;;;;;17.99;74.93;101618.16;20797240;28;20057;-79
2022/06/13 04:59:56;;;;;;;3.03;1.80;;;;;;;18.07;75.28;101634.59;20781981;28;20129;-79
2022/06/13 05:10:00;;;;;;;2.95;2.10;;;;;;;18.01;76.37;101618.91;20775256;28;20062;-81
2022/06/13 05:20:24;;;;;;;4.47;2.03;;;;;;;18.10;76.55;101639.75;20865137;28;20094;-81
2022/06/13 05:30:27;;;;;;;3.28;1.63;;;;;;;18.05;76.70;101633.88;20774650;28;20049;-78
2022/06/13 05:40:29;;;;;;;4.22;1.45;;;;;;;17.93;76.54;101626.72;20844187;28;20504;-79
2022/06/13 05:50:32;;;;;;;3.47;1.80;;;;;;;18.13;76.71;101664.78;20858409;28;20081;-80
2022/06/13 06:00:37;;;;;;;2.10;1.50;;;;;;;18.04;76.77;101663.66;20807729;28;20581;-78
2022/06/13 06:10:39;;;;;;;;;;;;;;;18.13;76.94;101675.56;20819589;28;20049;-79
2022/06/13 06:20:40;;;;;;;2.58;1.33;;;;;;;18.07;76.91;101683.09;20808430;28;19921;-79
2022/06/13 06:30:42;;;;;;;2.83;1.63;;;;;;;17.95;76.74;101667.88;20805152;28;20045;-77
2022/06/13 06:40:44;;;;;;;3.20;1.50;;;;;;;17.85;76.92;101646.16;20788865;28;20052;-78
2022/06/13 06:50:49;;;;;;;5.32;1.80;;;;;;;18.15;76.63;101714.03;20845831;28;20044;-78
2022/06/13 07:00:50;;;;;;;3.50;1.57;;;;;;;18.10;76.35;101714.38;20866244;28;20095;-78
2022/06/13 07:10:52;;;;;;;2.30;1.48;;;;;;;18.15;76.25;101722.94;20862769;28;20049;-78
2022/06/13 07:20:54;;;;;;;2.97;1.58;;;;;;;18.16;75.82;101753.47;20842458;28;20383;-76
2022/06/13 07:30:56;;;;;;;4.68;1.60;;;;;;;18.11;76.21;101733.09;20845857;28;20106;-77
2022/06/13 07:40:59;;;;;;;4.35;1.27;;;;;;;18.26;76.93;101746.38;20840127;28;20063;-78
2022/06/13 07:51:02;;;;;;;2.35;1.17;;;;;;;18.38;77.86;101729.25;20852905;28;20051;-78
2022/06/13 08:01:05;;;;;;;3.72;1.00;;;;;;;18.55;78.06;101736.03;20869810;28;20059;-78
2022/06/13 08:11:08;;;;;;;4.82;1.08;;;;;;;18.68;77.42;101751.25;20881512;28;20052;-77
2022/06/13 08:21:11;;;;;;;3.10;1.10;;;;;;;18.66;77.39;101758.59;20866889;28;20475;-77
2022/06/13 08:31:15;;;;;;;2.65;0.95;;;;;;;18.43;78.00;101728.03;20864700;28;20111;-77
2022/06/13 08:41:32;;;;;;;1.88;1.23;;;;;;;18.69;78.16;101764.63;20794481;28;20041;-77
2022/06/13 08:52:00;;;;;;;1.70;0.90;;;;;;;18.62;78.41;101762.50;20792277;28;20394;-77
2022/06/13 09:02:07;;;;;;;2.13;0.82;;;;;;;18.69;78.52;101779.94;20778389;28;20096;-77
2022/06/13 09:12:13;;;;;;;2.35;0.88;;;;;;;18.70;78.46;101779.81;20764151;28;20056;-77
2022/06/13 09:22:27;;;;;;;1.85;0.80;;;;;;;18.69;78.42;101796.97;20767152;28;20395;-77
2022/06/13 09:32:33;;;;;;;2.78;1.05;;;;;;;18.72;78.44;101789.63;20865796;28;20048;-77
2022/06/13 09:43:28;;;;;;;4.53;0.98;;;;;;;18.73;78.23;101811.06;20883225;28;20040;-76
2022/06/13 09:53:48;;;;;;;2.10;0.90;;;;;;;18.75;78.22;101810.97;20811231;28;20084;-77
2022/06/13 10:04:13;;;;;;;2.10;0.80;;;;;;;18.74;77.66;101825.44;20866134;28;20400;-76
2022/06/13 10:14:16;;;;;;;1.97;0.80;;;;;;;18.74;77.32;101836.22;20844149;28;20503;-80
2022/06/13 10:24:33;;;;;;;2.35;1.10;;;;;;;18.75;77.41;101824.44;20855818;28;20133;-78
2022/06/13 10:34:43;;;;;;;1.85;0.73;;;;;;;18.74;77.26;101850.56;20838845;28;20041;-78
2022/06/13 10:44:45;;;;;;;1.00;0.60;;;;;;;18.74;77.21;101847.00;20848698;28;20053;-78
2022/06/13 10:54:51;;;;;;;1.85;0.60;;;;;;;18.23;76.90;101781.66;20805321;28;20088;-78
2022/06/13 11:05:06;;;;;;;2.10;0.63;;;;;;;18.74;76.74;101879.38;20773988;28;20037;-78
2022/06/13 11:25:33;;;;;;;1.02;0.70;;;;;;;18.74;76.40;101906.34;20815984;28;20052;-78
2022/06/13 11:35:48;;;;;;;2.35;0.80;;;;;;;18.74;76.09;101898.25;20869327;28;20064;-78
2022/06/13 11:45:59;;;;;;;2.20;0.63;;;;;;;18.75;76.24;101894.59;20837602;28;20053;-77
2022/06/13 11:56:06;;;;;;;1.58;0.75;;;;;;;18.76;76.14;101904.41;20863714;28;20044;-79
2022/06/13 12:06:11;;;;;;;0.60;0.55;;;;;;;18.62;75.95;101898.22;20845067;28;20048;-78
2022/06/13 12:16:22;;;;;;;;;;;;;;;18.77;75.75;101893.47;20860591;28;20052;-78
2022/06/13 12:26:32;;;;;;;3.75;0.90;;;;;;;18.66;75.82;101888.94;20848878;28;19971;-78
2022/06/13 12:37:10;;;;;;;1.75;0.68;;;;;;;18.78;75.86;101914.09;20785914;28;20077;-78
2022/06/13 12:47:35;;;;;;;2.50;0.65;;;;;;;18.78;75.71;101916.81;20827128;28;20060;-77
2022/06/13 12:57:46;;;;;;;2.38;0.75;;;;;;;18.77;75.61;101928.53;20851250;28;20199;-77
2022/06/13 13:08:09;;;;;;;1.70;0.60;;;;;;;18.78;75.58;101929.41;20820389;28;20118;-78
2022/06/13 13:18:32;;;;;;;1.77;0.68;;;;;;;18.78;75.53;101946.47;20769155;28;20542;-78
2022/06/13 13:28:39;;;;;;;2.47;0.90;;;;;;;18.77;75.68;101939.34;20824324;28;20145;-78
2022/06/13 13:38:46;;;;;;;2.10;1.10;;;;;;;18.76;75.75;101955.66;20824227;28;20497;-77
2022/06/13 13:48:54;;;;;;;1.83;0.70;;;;;;;18.75;75.91;101949.38;20814794;28;20036;-77
2022/06/13 13:58:56;;;;;;;1.60;0.70;;;;;;;18.65;75.85;101954.63;20847583;28;20449;-77
2022/06/13 14:08:59;;;;;;;2.08;0.70;;;;;;;18.69;75.73;101939.94;20842519;28;20068;-78
2022/06/13 14:19:15;;;;;;;1.25;0.50;;;;;;;18.75;76.05;101956.63;20761959;28;20104;-78
2022/06/13 14:29:29;;;;;;;2.85;0.70;;;;;;;18.75;76.16;101951.22;20848661;28;20416;-77
2022/06/13 14:39:37;;;;;;;2.25;0.77;;;;;;;18.75;76.21;101959.34;20849374;28;21850;-78
2022/06/13 14:49:50;;;;;;;2.53;0.68;;;;;;;18.74;75.34;101965.69;20847782;28;20130;-78
2022/06/13 15:00:15;;;;;;;4.13;0.95;;;;;;;18.75;74.77;101962.03;20851774;28;20069;-80
2022/06/13 15:10:21;;;;;;;1.33;0.57;;;;;;;18.57;75.04;101927.38;20829034;28;20052;-79
2022/06/13 15:20:47;;;;;;;3.65;0.88;;;;;;;18.76;74.80;101961.91;20855137;28;20037;-80
2022/06/13 15:31:14;;;;;;;1.77;0.55;;;;;;;18.76;74.58;101959.19;20825842;28;20412;-81
2022/06/13 15:41:34;;;;;;;2.00;0.80;;;;;;;18.78;74.49;101961.78;20836160;28;20406;-80
2022/06/13 15:51:36;;;;;;;1.77;1.13;;;;;;;18.72;74.67;101962.25;20801601;28;20485;-81
2022/06/13 16:01:52;;;;;;;5.72;1.90;;;;;;;18.78;75.12;101968.06;20759918;28;20053;-80
2022/06/13 16:11:57;;;;;;;6.32;2.08;;;;;;;18.79;75.84;101968.91;20814709;28;20081;-79
2022/06/13 16:22:00;;;;;;;;;;;;;;;18.80;76.73;101981.41;20797303;28;20045;-78
2022/06/13 16:32:06;;;;;;;10.40;3.15;;;;;;;18.81;77.51;101966.94;20856999;28;20312;-79
2022/06/13 16:42:24;;;;;;;8.43;3.05;;;;;;;18.80;78.78;101971.50;20875984;28;20057;-78
2022/06/13 16:52:34;;;;;;;9.60;3.03;;;;;;;18.80;79.30;101985.00;20856536;28;20053;-79
2022/06/13 17:02:37;;;;;;;8.20;2.10;;;;;;;18.81;79.28;101983.13;20852596;28;20804;-81
2022/06/13 17:12:59;;;;;;;5.80;1.88;;;;;;;18.82;78.80;101995.66;20811710;28;20045;-80
2022/06/13 17:23:01;;;;;;;5.88;1.90;;;;;;;18.71;78.54;101972.19;20771817;28;20041;-80
2022/06/13 17:33:03;;;;;;;5.93;1.98;;;;;;;18.61;78.08;101954.97;20853442;28;20115;-80
2022/06/13 17:43:07;;;;;;;3.17;1.30;;;;;;;18.80;77.50;101994.91;20858700;28;20500;-78
2022/06/13 17:53:09;;;;;;;5.53;1.77;;;;;;;18.77;77.71;101997.84;20885366;28;20045;-77
2022/06/13 18:03:11;;;;;;;3.13;1.27;;;;;;;18.72;77.29;101994.63;20914138;28;21423;-78
2022/06/13 18:13:12;;;;;;;4.05;1.67;;;;;;;18.68;76.66;101997.56;20800666;28;20045;-78
2022/06/13 18:23:14;;;;;;;3.65;1.27;;;;;;;18.59;76.25;101998.25;20799296;28;20049;-78
2022/06/13 18:33:15;;;;;;;4.05;1.45;;;;;;;18.62;76.20;102022.28;20799802;28;20413;-78
2022/06/13 18:43:17;;;;;;;3.88;1.80;;;;;;;18.61;75.88;102022.41;20799976;28;20405;-78
2022/06/13 18:53:19;;;;;;;3.08;1.48;;;;;;;18.59;75.89;102016.25;20800243;28;20136;-78
2022/06/13 19:03:23;;;;;;;3.47;1.10;;;;;;;18.56;75.61;102020.06;20798026;28;20405;-78
2022/06/13 19:13:26;;;;;;;2.10;1.10;;;;;;;18.30;75.49;101979.69;20795277;28;20056;-78
2022/06/13 19:23:28;;;;;;;3.45;1.15;;;;;;;18.54;75.49;102036.34;20796693;28;20058;-78
2022/06/13 19:33:30;;;;;;;3.53;1.23;;;;;;;18.53;75.17;102048.09;20795921;28;20132;-77
2022/06/13 19:43:37;;;;;;;2.67;1.15;;;;;;;18.52;74.84;102050.91;20879591;28;20106;-78
2022/06/13 19:53:40;;;;;;;1.95;1.02;;;;;;;18.49;74.76;102062.78;20895314;28;20049;-78
2022/06/13 20:03:43;;;;;;;2.33;1.10;;;;;;;18.48;74.56;102068.28;20893672;28;20458;-78
2022/06/13 20:13:47;;;;;;;3.15;1.10;;;;;;;18.31;74.71;102039.84;20831895;28;20406;-77
2022/06/13 20:23:49;;;;;;;3.37;1.03;;;;;;;18.47;74.50;102077.34;20891709;28;20129;-77
2022/06/13 20:33:54;;;;;;;2.40;1.00;;;;;;;18.39;74.53;102065.28;20893156;28;20064;-78
2022/06/13 20:43:56;;;;;;;1.98;1.20;;;;;;;18.45;74.57;102071.19;20892215;28;20056;-78
2022/06/13 20:53:58;;;;;;;2.63;1.00;;;;;;;18.43;74.35;102078.53;20892958;28;20455;-78
2022/06/13 21:04:02;;;;;;;2.42;0.90;;;;;;;18.27;74.35;102052.69;20890826;28;20523;-78
2022/06/13 21:14:05;;;;;;;2.17;0.77;;;;;;;18.39;74.26;102076.06;20880453;28;20049;-78
2022/06/13 21:24:07;;;;;;;2.78;1.08;;;;;;;18.38;74.10;102073.50;20807407;28;20331;-77
2022/06/13 21:34:11;;;;;;;3.20;1.10;;;;;;;18.37;74.09;102061.00;20806329;28;20053;-77
2022/06/13 21:44:13;;;;;;;2.40;1.00;;;;;;;18.17;73.90;102022.00;20886365;28;20041;-77
2022/06/13 21:54:14;;;;;;;2.55;1.20;;;;;;;18.36;73.87;102070.06;20886224;28;20091;-77
2022/06/13 22:04:16;;;;;;;1.60;0.70;;;;;;;18.34;73.77;102063.88;20885637;28;20055;-78
2022/06/13 22:14:18;;;;;;;3.05;1.00;;;;;;;18.19;73.56;102047.00;20804279;28;20103;-78
2022/06/13 22:24:19;;;;;;;2.10;1.10;;;;;;;18.13;73.52;102037.50;20800630;28;20103;-78
2022/06/13 22:34:21;;;;;;;2.22;0.90;;;;;;;18.32;73.45;102101.75;20801082;28;20383;-77
2022/06/13 22:44:23;;;;;;;2.00;0.90;;;;;;;18.30;73.25;102095.59;20800732;28;20050;-78
2022/06/13 22:54:24;;;;;;;3.00;0.88;;;;;;;17.79;73.33;102013.81;20798601;28;20128;-78
2022/06/13 23:04:26;;;;;;;1.58;1.00;;;;;;;18.29;73.02;102068.75;20789780;28;20441;-78
2022/06/13 23:14:28;;;;;;;1.02;0.70;;;;;;;18.28;72.87;102073.28;20799127;28;20057;-78
2022/06/13 23:24:29;;;;;;;0.82;0.60;;;;;;;18.18;72.68;102053.38;20799864;28;20494;-77
2022/06/13 23:34:31;;;;;;;1.48;0.88;;;;;;;18.24;72.45;102055.63;20844248;28;20057;-77
2022/06/13 23:44:33;;;;;;;2.05;0.80;;;;;;;18.24;72.43;102071.78;20878736;28;20067;-78
2022/06/13 23:54:34;;;;;;;1.42;0.88;;;;;;;18.23;72.20;102068.22;20879591;28;20158;-77
